St. Simon — WDI9604 — position and weather

sailwx.info

Track history (hours):
 
Tides and Currents Weather Stations Pressure Air Temp Water Temp Dewpoint Dewpoint Depression Visibility Wind Speed Wind Dir Waves Ship Positions

St. Simon

Owner: Marquette Transportation Company Gulf-Inland, LLC, Jefferson, LA. More information available from US FCC via Universal Licensing System and Coast Guard Vessel Documentation Center.

Last reported at 2018-Feb-11 11:22 UTC. Time now 2018-Feb-23 02:38 UTC.
Position N 32°40' W 091°08'.
Warning: this ship's position is 11 days out of date.

Length 26 m; draft 2.7 m.

Type: Ship (hazmat cat B). MMSI: 367750340.

Date/timePositionNaut miles runAvg speedWind from/ knotsBaromVisibWave heightAir tempDewpointWater temp
2018-Feb-11 11:22N 32°40' W 091°08'1 3.3
2018-Feb-11 11:00N 32°39' W 091°09'1 3.1
2018-Feb-11 10:30N 32°38' W 091°09'1 2.9
2018-Feb-11 10:00N 32°36' W 091°09'2 3.1
2018-Feb-11 09:30N 32°35' W 091°08'1 2.8
2018-Feb-11 09:01N 32°34' W 091°06'2 3.4
2018-Feb-11 08:30N 32°33' W 091°06'2 3.6
2018-Feb-11 08:01N 32°31' W 091°06'2 4.0
2018-Feb-11 07:30N 32°29' W 091°07'2 3.6
2018-Feb-11 07:00N 32°27' W 091°06'2 3.7
2018-Feb-11 06:30N 32°27' W 091°04'2 3.5
2018-Feb-11 06:00N 32°26' W 091°02'2 3.4
2018-Feb-11 05:30N 32°25' W 091°00'1 3.0
2018-Feb-11 05:00N 32°24' W 090°60'2 3.3
2018-Feb-11 04:30N 32°22' W 091°00'2 3.5
2018-Feb-11 04:00N 32°21' W 090°59'2 4.3
2018-Feb-11 03:30N 32°21' W 090°56'2 3.5
2018-Feb-11 03:01N 32°20' W 090°54'1 2.9
2018-Feb-11 02:31N 32°19' W 090°54'1 2.9
2018-Feb-11 02:00N 32°18' W 090°55'2 3.2
2018-Feb-11 01:31N 32°17' W 090°57'2 3.4
2018-Feb-11 01:00N 32°16' W 090°58'2 3.2
2018-Feb-11 00:31N 32°14' W 090°59'2 3.5
2018-Feb-11 00:00N 32°12' W 090°59'2 3.2
2018-Feb-10 23:30N 32°11' W 090°60'2 3.1
2018-Feb-10 23:00N 32°09' W 091°00'2 3.6
2018-Feb-10 22:30N 32°08' W 091°01'4 3.4
2018-Feb-10 21:24N 32°08' W 091°05'1 3.5
2018-Feb-10 21:00N 32°07' W 091°07'4 3.7
2018-Feb-10 19:56N 32°04' W 091°04'1 3.2
2018-Feb-10 19:30N 32°03' W 091°04'  
2018-Feb-06 18:31N 31°57' W 091°11'5 8.4
2018-Feb-06 17:57N 31°59' W 091°06'2 1.8
2018-Feb-06 16:57N 32°01' W 091°05'2 4.5
2018-Feb-06 16:30N 32°02' W 091°04'4 7.1
2018-Feb-06 15:54N 32°06' W 091°06'2 5.0
2018-Feb-06 15:29N 32°08' W 091°05'3 6.0
2018-Feb-06 15:00N 32°07' W 091°01'3 6.6
2018-Feb-06 14:30N 32°10' W 091°00'5 9.5
2018-Feb-06 14:00N 32°15' W 090°59'8 5.3
2018-Feb-06 12:30N 32°23' W 090°60'4 7.4
2018-Feb-06 12:00N 32°26' W 091°02'4 9.0
2018-Feb-06 11:30N 32°29' W 091°07'5 9.1
2018-Feb-06 11:00N 32°33' W 091°06'6 9.1
2018-Feb-06 10:22N 32°38' W 091°09'  
Track history (hours):
 
Tides and Currents Weather Stations Pressure Air Temp Water Temp Dewpoint Dewpoint Depression Visibility Wind Speed Wind Dir Waves Ship Positions

St. Simon

Owner: Marquette Transportation Company Gulf-Inland, LLC, Jefferson, LA. More information available from US FCC via Universal Licensing System and Coast Guard Vessel Documentation Center.

Last reported at 2018-Feb-11 11:22 UTC. Time now 2018-Feb-23 02:38 UTC.
Position N 32°40' W 091°08'.
Warning: this ship's position is 11 days out of date.

Length 26 m; draft 2.7 m.

Type: Ship (hazmat cat B). MMSI: 367750340.

Date/timePositionNaut miles runAvg speedWind from/ knotsBaromVisibWave heightAir tempDewpointWater temp
2018-Feb-11 11:22N 32°40' W 091°08'1 3.3
2018-Feb-11 11:00N 32°39' W 091°09'1 3.1
2018-Feb-11 10:30N 32°38' W 091°09'1 2.9
2018-Feb-11 10:00N 32°36' W 091°09'2 3.1
2018-Feb-11 09:30N 32°35' W 091°08'1 2.8
2018-Feb-11 09:01N 32°34' W 091°06'2 3.4
2018-Feb-11 08:30N 32°33' W 091°06'2 3.6
2018-Feb-11 08:01N 32°31' W 091°06'2 4.0
2018-Feb-11 07:30N 32°29' W 091°07'2 3.6
2018-Feb-11 07:00N 32°27' W 091°06'2 3.7
2018-Feb-11 06:30N 32°27' W 091°04'2 3.5
2018-Feb-11 06:00N 32°26' W 091°02'2 3.4
2018-Feb-11 05:30N 32°25' W 091°00'1 3.0
2018-Feb-11 05:00N 32°24' W 090°60'2 3.3
2018-Feb-11 04:30N 32°22' W 091°00'2 3.5
2018-Feb-11 04:00N 32°21' W 090°59'2 4.3
2018-Feb-11 03:30N 32°21' W 090°56'2 3.5
2018-Feb-11 03:01N 32°20' W 090°54'1 2.9
2018-Feb-11 02:31N 32°19' W 090°54'1 2.9
2018-Feb-11 02:00N 32°18' W 090°55'2 3.2
2018-Feb-11 01:31N 32°17' W 090°57'2 3.4
2018-Feb-11 01:00N 32°16' W 090°58'2 3.2
2018-Feb-11 00:31N 32°14' W 090°59'2 3.5
2018-Feb-11 00:00N 32°12' W 090°59'2 3.2
2018-Feb-10 23:30N 32°11' W 090°60'2 3.1
2018-Feb-10 23:00N 32°09' W 091°00'2 3.6
2018-Feb-10 22:30N 32°08' W 091°01'4 3.4
2018-Feb-10 21:24N 32°08' W 091°05'1 3.5
2018-Feb-10 21:00N 32°07' W 091°07'4 3.7
2018-Feb-10 19:56N 32°04' W 091°04'1 3.2
2018-Feb-10 19:30N 32°03' W 091°04'  
2018-Feb-06 18:31N 31°57' W 091°11'5 8.4
2018-Feb-06 17:57N 31°59' W 091°06'2 1.8
2018-Feb-06 16:57N 32°01' W 091°05'2 4.5
2018-Feb-06 16:30N 32°02' W 091°04'4 7.1
2018-Feb-06 15:54N 32°06' W 091°06'2 5.0
2018-Feb-06 15:29N 32°08' W 091°05'3 6.0
2018-Feb-06 15:00N 32°07' W 091°01'3 6.6
2018-Feb-06 14:30N 32°10' W 091°00'5 9.5
2018-Feb-06 14:00N 32°15' W 090°59'8 5.3
2018-Feb-06 12:30N 32°23' W 090°60'4 7.4
2018-Feb-06 12:00N 32°26' W 091°02'4 9.0
2018-Feb-06 11:30N 32°29' W 091°07'5 9.1
2018-Feb-06 11:00N 32°33' W 091°06'6 9.1
2018-Feb-06 10:22N 32°38' W 091°09'  

Dump ship's entire track history